createdAt,value
2018-09-25T00:00:44.568Z,7.7
2018-09-25T00:01:45.237Z,7.8
2018-09-25T00:02:45.909Z,7.7
2018-09-25T00:03:46.625Z,7.7
2018-09-25T00:04:47.295Z,7.7
2018-09-25T00:05:47.965Z,7.7
2018-09-25T00:06:48.634Z,7.8
2018-09-25T00:07:49.305Z,7.7
2018-09-25T00:08:49.975Z,7.8
2018-09-25T00:09:50.650Z,7.8
2018-09-25T00:10:51.317Z,7.8
2018-09-25T00:11:51.990Z,7.7
2018-09-25T00:12:52.662Z,7.8
2018-09-25T00:13:53.331Z,7.7
2018-09-25T00:14:54.000Z,7.7
2018-09-25T00:15:54.671Z,7.7
2018-09-25T00:16:55.342Z,7.7
2018-09-25T00:17:56.011Z,7.7
2018-09-25T00:18:56.681Z,7.7
2018-09-25T00:19:57.398Z,7.7
2018-09-25T00:20:58.024Z,7.7
2018-09-25T00:21:58.694Z,7.7
2018-09-25T00:22:59.362Z,7.7
2018-09-25T00:24:00.035Z,7.7
2018-09-25T00:25:00.706Z,7.7
2018-09-25T00:26:01.376Z,7.7
2018-09-25T00:27:02.045Z,7.8
2018-09-25T00:28:02.715Z,7.6
2018-09-25T00:29:03.386Z,7.6
2018-09-25T00:30:04.056Z,7.6
2018-09-25T00:31:04.727Z,7.7
2018-09-25T00:32:05.398Z,7.6
2018-09-25T00:33:06.069Z,7.7
2018-09-25T00:34:06.741Z,7.6
2018-09-25T00:35:07.412Z,7.7
2018-09-25T00:36:08.081Z,7.6
2018-09-25T00:37:08.752Z,7.6
2018-09-25T00:38:09.423Z,7.5
2018-09-25T00:39:10.095Z,7.5
2018-09-25T00:40:10.764Z,7.5
2018-09-25T00:41:11.435Z,7.6
2018-09-25T00:42:12.151Z,7.6
2018-09-25T00:43:12.823Z,7.5
2018-09-25T00:44:13.498Z,7.5
2018-09-25T00:45:14.163Z,7.6
2018-09-25T00:46:14.835Z,7.5
2018-09-25T00:47:15.511Z,7.4
2018-09-25T00:48:16.221Z,7.5
2018-09-25T00:49:16.891Z,7.5
2018-09-25T00:50:17.562Z,7.5
2018-09-25T00:51:18.232Z,7.4
2018-09-25T00:52:18.903Z,7.5
2018-09-25T00:53:19.573Z,7.4
2018-09-25T00:54:20.244Z,7.4
2018-09-25T00:55:20.917Z,7.5
2018-09-25T00:56:21.586Z,7.5
2018-09-25T00:57:22.255Z,7.4
2018-09-25T00:58:22.926Z,7.5
2018-09-25T00:59:23.596Z,7.5
2018-09-25T01:00:24.266Z,7.5
2018-09-25T01:01:24.935Z,7.4
2018-09-25T01:02:25.607Z,7.4
2018-09-25T01:03:26.278Z,7.5
2018-09-25T01:04:26.948Z,7.4
2018-09-25T01:05:27.623Z,7.4
2018-09-25T01:06:28.288Z,7.5
2018-09-25T01:07:28.958Z,7.5
2018-09-25T01:08:29.628Z,7.4
2018-09-25T01:09:30.298Z,7.5
2018-09-25T01:10:30.970Z,7.5
2018-09-25T01:11:31.640Z,7.4
2018-09-25T01:12:32.311Z,7.4
2018-09-25T01:13:32.980Z,7.4
2018-09-25T01:14:33.702Z,7.4
2018-09-25T01:15:34.373Z,7.4
2018-09-25T01:16:35.046Z,7.4
2018-09-25T01:17:35.761Z,7.4
2018-09-25T01:18:36.432Z,7.4
2018-09-25T01:19:37.101Z,7.3
2018-09-25T01:20:37.770Z,7.4
2018-09-25T01:21:38.441Z,7.3
2018-09-25T01:22:39.111Z,7.4
2018-09-25T01:23:39.785Z,7.4
2018-09-25T01:24:40.497Z,7.3
2018-09-25T01:25:41.167Z,7.4
2018-09-25T01:26:41.837Z,7.3
2018-09-25T01:27:42.507Z,7.3
2018-09-25T01:28:43.177Z,7.3
2018-09-25T01:29:43.849Z,7.4
2018-09-25T01:30:44.519Z,7.3
2018-09-25T01:31:45.235Z,7.4
2018-09-25T01:32:45.910Z,7.2
2018-09-25T01:33:46.576Z,7.2
2018-09-25T01:34:47.248Z,7.2
2018-09-25T01:35:47.916Z,7.2
2018-09-25T01:36:48.588Z,7.2
2018-09-25T01:37:49.259Z,7.2
2018-09-25T01:38:49.928Z,7.3
2018-09-25T01:39:50.599Z,7.2
2018-09-25T01:40:51.271Z,7.2
2018-09-25T01:41:51.940Z,7.2
2018-09-25T01:42:52.611Z,7.2
2018-09-25T01:43:53.283Z,7.2
2018-09-25T01:44:53.952Z,7.2
2018-09-25T01:45:54.623Z,7.2
2018-09-25T01:46:55.293Z,7.2
2018-09-25T01:47:56.009Z,7.1
2018-09-25T01:48:56.679Z,7.2
2018-09-25T01:49:57.352Z,7.2
2018-09-25T01:50:58.019Z,7.2
2018-09-25T01:51:58.691Z,7.2
2018-09-25T01:52:59.360Z,7.2
2018-09-25T01:54:00.033Z,7.1
2018-09-25T01:55:00.737Z,7.2
2018-09-25T01:56:01.406Z,7.1
2018-09-25T01:57:02.082Z,7.2
2018-09-25T01:58:02.795Z,7.1
2018-09-25T01:59:03.464Z,7.2
2018-09-25T02:00:04.133Z,7.2
2018-09-25T02:01:04.806Z,7.2
2018-09-25T02:02:05.519Z,7.2
2018-09-25T02:03:06.189Z,7.2
2018-09-25T02:04:06.860Z,7.1
2018-09-25T02:05:07.530Z,7.2
2018-09-25T02:06:08.199Z,7.1
2018-09-25T02:07:08.915Z,7.2
2018-09-25T02:08:09.586Z,7.1
2018-09-25T02:09:10.256Z,7.1
2018-09-25T02:10:10.927Z,7.1
2018-09-25T02:11:11.596Z,7.0
2018-09-25T02:12:12.268Z,7.1
2018-09-25T02:13:12.939Z,7.0
2018-09-25T02:14:13.608Z,7.1
2018-09-25T02:15:14.277Z,7.1
2018-09-25T02:16:14.949Z,7.0
2018-09-25T02:17:15.620Z,7.1
2018-09-25T02:18:16.289Z,7.0
2018-09-25T02:19:16.961Z,7.1
2018-09-25T02:20:17.630Z,7.0
2018-09-25T02:21:18.302Z,7.0
2018-09-25T02:22:18.972Z,7.0
2018-09-25T02:23:19.643Z,7.0
2018-09-25T02:24:20.313Z,7.0
2018-09-25T02:25:20.983Z,7.0
2018-09-25T02:26:21.652Z,6.9
2018-09-25T02:27:22.323Z,7.0
2018-09-25T02:28:22.993Z,7.0
2018-09-25T02:29:23.664Z,6.9
2018-09-25T02:30:24.334Z,7.0
2018-09-25T02:31:25.004Z,6.9
2018-09-25T02:32:25.672Z,6.9
2018-09-25T02:33:26.345Z,6.9
2018-09-25T02:34:27.013Z,6.9
2018-09-25T02:35:27.684Z,7.0
2018-09-25T02:36:28.352Z,6.9
2018-09-25T02:37:29.023Z,6.9
2018-09-25T02:38:29.693Z,7.0
2018-09-25T02:39:30.365Z,6.9
2018-09-25T02:40:31.033Z,6.9
2018-09-25T02:41:31.703Z,6.9
2018-09-25T02:42:32.372Z,6.9
2018-09-25T02:43:33.043Z,6.9
2018-09-25T02:44:33.713Z,6.9
2018-09-25T02:45:34.383Z,7.0
2018-09-25T02:46:35.053Z,6.8
2018-09-25T02:47:35.725Z,6.9
2018-09-25T02:48:36.396Z,6.9
2018-09-25T02:49:37.109Z,6.9
2018-09-25T02:50:37.777Z,6.8
2018-09-25T02:51:38.448Z,6.9
2018-09-25T02:52:39.119Z,6.8
2018-09-25T02:53:39.795Z,6.9
2018-09-25T02:54:40.505Z,6.8
2018-09-25T02:55:41.174Z,6.8
2018-09-25T02:56:41.848Z,6.8
2018-09-25T02:57:42.514Z,6.7
2018-09-25T02:58:43.183Z,6.8
2018-09-25T02:59:43.853Z,6.8
2018-09-25T03:00:44.572Z,6.9
2018-09-25T03:01:45.238Z,6.9
2018-09-25T03:02:45.910Z,6.9
2018-09-25T03:03:46.581Z,6.8
2018-09-25T03:04:47.250Z,6.8
2018-09-25T03:05:47.919Z,6.8
2018-09-25T03:06:48.590Z,6.9
2018-09-25T03:07:49.260Z,6.8
2018-09-25T03:08:49.933Z,6.8
2018-09-25T03:09:50.645Z,6.8
2018-09-25T03:10:51.318Z,6.7
2018-09-25T03:11:51.987Z,6.8
2018-09-25T03:12:52.655Z,6.7
2018-09-25T03:13:53.325Z,6.8
2018-09-25T03:14:53.996Z,6.8
2018-09-25T03:15:54.666Z,6.8
2018-09-25T03:16:55.335Z,6.7
2018-09-25T03:17:56.007Z,6.8
2018-09-25T03:18:56.676Z,6.8
2018-09-25T03:19:57.347Z,6.8
2018-09-25T03:20:58.017Z,6.8
2018-09-25T03:21:58.688Z,6.7
2018-09-25T03:22:59.359Z,6.7
2018-09-25T03:24:00.098Z,6.7
2018-09-25T03:25:00.743Z,6.7
2018-09-25T03:26:01.416Z,6.7
2018-09-25T03:27:02.127Z,6.7
2018-09-25T03:28:02.797Z,6.6
2018-09-25T03:29:03.466Z,6.6
2018-09-25T03:30:04.136Z,6.7
2018-09-25T03:31:04.821Z,6.7
2018-09-25T03:32:05.547Z,6.7
2018-09-25T03:33:06.193Z,6.6
2018-09-25T03:34:06.863Z,6.6
2018-09-25T03:35:07.533Z,6.6
2018-09-25T03:36:08.202Z,6.8
2018-09-25T03:37:08.873Z,6.8
2018-09-25T03:38:09.543Z,6.9
2018-09-25T03:39:10.213Z,6.7
2018-09-25T03:40:10.882Z,6.8
2018-09-25T03:41:11.552Z,6.9
2018-09-25T03:42:12.222Z,6.9
2018-09-25T03:43:12.892Z,6.9
2018-09-25T03:44:13.567Z,6.9
2018-09-25T03:45:14.279Z,7.1
2018-09-25T03:46:14.948Z,7.1
2018-09-25T03:47:15.620Z,7.0
2018-09-25T03:48:16.288Z,7.2
2018-09-25T03:49:16.963Z,7.2
2018-09-25T03:50:17.631Z,7.3
2018-09-25T03:51:18.303Z,7.2
2018-09-25T03:52:18.970Z,7.2
2018-09-25T03:53:19.640Z,7.2
2018-09-25T03:54:20.311Z,7.3
2018-09-25T03:55:20.980Z,7.3
2018-09-25T03:56:21.650Z,7.3
2018-09-25T03:57:22.322Z,7.3
2018-09-25T03:58:22.992Z,7.3
2018-09-25T03:59:23.664Z,7.3
2018-09-25T04:00:24.337Z,7.3
2018-09-25T04:01:25.004Z,7.3
2018-09-25T04:02:25.677Z,7.3
2018-09-25T04:03:26.347Z,7.3
2018-09-25T04:04:27.062Z,7.3
2018-09-25T04:05:27.737Z,7.2
2018-09-25T04:06:28.448Z,7.2
2018-09-25T04:07:29.118Z,7.2
2018-09-25T04:08:29.789Z,7.2
2018-09-25T04:09:30.459Z,7.2
2018-09-25T04:10:31.131Z,7.1
2018-09-25T04:11:31.798Z,7.2
2018-09-25T04:12:32.468Z,7.2
2018-09-25T04:13:33.144Z,7.3
2018-09-25T04:14:33.854Z,7.2
2018-09-25T04:15:34.528Z,7.2
2018-09-25T04:16:35.197Z,7.3
2018-09-25T04:17:35.867Z,7.3
2018-09-25T04:18:36.537Z,7.3
2018-09-25T04:19:37.216Z,7.4
2018-09-25T04:20:37.878Z,7.4
2018-09-25T04:21:38.547Z,7.4
2018-09-25T04:22:39.217Z,7.4
2018-09-25T04:23:39.892Z,7.4
2018-09-25T04:24:40.561Z,7.5
2018-09-25T04:25:41.241Z,7.5
2018-09-25T04:26:41.900Z,7.5
2018-09-25T04:27:42.572Z,7.5
2018-09-25T04:28:43.239Z,7.6
2018-09-25T04:29:43.912Z,7.6
2018-09-25T04:30:44.625Z,7.5
2018-09-25T04:31:45.296Z,7.6
2018-09-25T04:32:45.967Z,7.5
2018-09-25T04:33:46.644Z,7.6
2018-09-25T04:34:47.351Z,7.6
2018-09-25T04:35:48.021Z,7.6
2018-09-25T04:36:48.692Z,7.6
2018-09-25T04:37:49.406Z,7.6
2018-09-25T04:38:50.077Z,7.6
2018-09-25T04:39:50.748Z,7.6
2018-09-25T04:40:51.419Z,7.7
2018-09-25T04:41:52.089Z,7.7
2018-09-25T04:42:52.808Z,7.5
2018-09-25T04:43:53.523Z,7.5
2018-09-25T04:44:54.191Z,7.5
2018-09-25T04:45:54.861Z,7.6
2018-09-25T04:46:55.533Z,7.4
2018-09-25T04:47:56.221Z,7.4
2018-09-25T04:48:56.875Z,7.4
2018-09-25T04:49:57.548Z,7.4
2018-09-25T04:50:58.218Z,7.3
2018-09-25T04:51:58.891Z,7.4
2018-09-25T04:52:59.562Z,7.3
2018-09-25T04:54:00.236Z,7.3
2018-09-25T04:55:00.951Z,7.3
2018-09-25T04:56:01.671Z,7.3
2018-09-25T04:57:02.361Z,7.2
2018-09-25T04:58:03.016Z,7.2
2018-09-25T04:59:03.686Z,7.2
2018-09-25T05:00:04.358Z,7.1
2018-09-25T05:01:05.029Z,7.2
2018-09-25T05:02:05.701Z,7.2
2018-09-25T05:03:06.374Z,7.1
2018-09-25T05:04:07.046Z,7.2
2018-09-25T05:05:07.720Z,7.3
2018-09-25T05:06:08.392Z,7.3
2018-09-25T05:07:09.065Z,7.3
2018-09-25T05:08:09.737Z,7.3
2018-09-25T05:09:10.409Z,7.4
2018-09-25T05:10:11.082Z,7.5
2018-09-25T05:11:11.755Z,7.4
2018-09-25T05:12:12.518Z,7.5
2018-09-25T05:13:13.102Z,7.6
2018-09-25T05:14:13.773Z,7.6
2018-09-25T05:15:14.446Z,7.6
2018-09-25T05:16:15.119Z,7.6
2018-09-25T05:17:15.834Z,7.7
2018-09-25T05:18:16.556Z,7.6
2018-09-25T05:19:17.187Z,7.6
2018-09-25T05:20:17.859Z,7.6
2018-09-25T05:21:18.534Z,7.6
2018-09-25T05:22:19.257Z,7.7
2018-09-25T05:23:19.974Z,7.6
2018-09-25T05:24:20.641Z,7.6
2018-09-25T05:25:21.315Z,7.6
2018-09-25T05:26:21.988Z,7.6
2018-09-25T05:27:22.660Z,7.7
2018-09-25T05:28:23.383Z,7.7
2018-09-25T05:29:24.058Z,7.8
2018-09-25T05:30:24.730Z,7.7
2018-09-25T05:31:25.405Z,7.7
2018-09-25T05:32:26.121Z,7.7
2018-09-25T05:33:26.790Z,7.9
2018-09-25T05:34:27.468Z,7.9
2018-09-25T05:35:28.142Z,7.9
2018-09-25T05:36:28.816Z,7.9
2018-09-25T05:37:29.493Z,8.0
2018-09-25T05:38:30.169Z,8.0
2018-09-25T05:39:30.844Z,8.0
2018-09-25T05:40:31.519Z,8.0
2018-09-25T05:41:32.193Z,8.0
2018-09-25T05:42:32.868Z,8.0
2018-09-25T05:43:33.560Z,8.0
2018-09-25T05:44:34.263Z,8.0
2018-09-25T05:45:34.939Z,7.9
2018-09-25T05:46:35.616Z,7.9
2018-09-25T05:47:36.333Z,7.9
2018-09-25T05:48:37.017Z,7.8
2018-09-25T05:49:37.685Z,7.8
2018-09-25T05:50:38.359Z,7.8
2018-09-25T05:51:39.033Z,7.8
2018-09-25T05:52:39.713Z,7.7
2018-09-25T05:53:40.385Z,7.8
2018-09-25T05:54:41.059Z,7.7
2018-09-25T05:55:41.811Z,7.8
2018-09-25T05:56:42.412Z,7.8
2018-09-25T05:57:43.133Z,7.8
2018-09-25T05:58:43.853Z,7.8
2018-09-25T05:59:44.527Z,7.8
2018-09-25T06:00:45.203Z,7.8
2018-09-25T06:01:45.880Z,7.9
2018-09-25T06:02:46.554Z,7.9
2018-09-25T06:03:47.273Z,7.9
2018-09-25T06:04:47.950Z,7.9
2018-09-25T06:05:48.628Z,7.9
2018-09-25T06:06:49.345Z,7.9
2018-09-25T06:07:50.021Z,7.9
2018-09-25T06:08:50.695Z,7.9
2018-09-25T06:09:51.372Z,7.9
2018-09-25T06:10:52.045Z,7.9
2018-09-25T06:11:52.720Z,7.9
2018-09-25T06:12:53.395Z,7.9
2018-09-25T06:13:54.071Z,7.9
2018-09-25T06:14:54.745Z,7.9
2018-09-25T06:15:55.422Z,7.8
2018-09-25T06:16:56.097Z,7.9
2018-09-25T06:17:56.771Z,7.8
2018-09-25T06:18:57.446Z,7.9
2018-09-25T06:19:58.122Z,7.8
2018-09-25T06:20:58.798Z,7.8
2018-09-25T06:21:59.517Z,7.8
2018-09-25T06:23:00.247Z,7.8
2018-09-25T06:24:00.867Z,7.9
2018-09-25T06:25:01.543Z,7.9
2018-09-25T06:26:02.216Z,7.9
2018-09-25T06:27:02.891Z,7.8
2018-09-25T06:28:03.567Z,7.8
2018-09-25T06:29:04.288Z,7.8
2018-09-25T06:30:04.917Z,7.9
2018-09-25T06:31:05.639Z,7.9
2018-09-25T06:32:06.314Z,7.9
2018-09-25T06:33:06.991Z,7.8
2018-09-25T06:34:07.664Z,7.9
2018-09-25T06:35:08.341Z,7.9
2018-09-25T06:36:09.015Z,7.9
2018-09-25T06:37:09.698Z,7.9
2018-09-25T06:38:10.405Z,7.9
2018-09-25T06:39:11.080Z,7.9
2018-09-25T06:40:11.799Z,7.9
2018-09-25T06:41:12.474Z,8.0
2018-09-25T06:42:13.149Z,8.0
2018-09-25T06:43:13.826Z,8.0
2018-09-25T06:44:14.498Z,8.0
2018-09-25T06:45:15.174Z,8.0
2018-09-25T06:46:15.861Z,8.1
2018-09-25T06:47:16.562Z,8.0
2018-09-25T06:48:17.200Z,8.0
2018-09-25T06:49:17.877Z,8.1
2018-09-25T06:50:18.553Z,8.1
2018-09-25T06:51:19.227Z,8.1
2018-09-25T06:52:19.905Z,8.2
2018-09-25T06:53:20.578Z,8.2
2018-09-25T06:54:21.253Z,8.3
2018-09-25T06:55:21.961Z,8.3
2018-09-25T06:56:22.602Z,8.3
2018-09-25T06:57:23.278Z,8.2
2018-09-25T06:58:23.955Z,8.2
2018-09-25T06:59:24.628Z,8.2
2018-09-25T07:00:25.309Z,8.3
2018-09-25T07:01:25.978Z,8.3
2018-09-25T07:02:26.654Z,8.4
2018-09-25T07:03:27.334Z,8.4
2018-09-25T07:04:28.009Z,8.4
2018-09-25T07:05:28.682Z,8.5
2018-09-25T07:06:29.357Z,8.4
2018-09-25T07:07:30.035Z,8.4
2018-09-25T07:08:30.754Z,8.5
2018-09-25T07:09:31.450Z,8.5
2018-09-25T07:10:32.329Z,8.5
2018-09-25T07:11:32.780Z,8.6
2018-09-25T07:12:33.456Z,8.6
2018-09-25T07:13:34.130Z,8.6
2018-09-25T07:14:34.806Z,8.7
2018-09-25T07:15:35.482Z,8.7
2018-09-25T07:16:36.156Z,8.7
2018-09-25T07:17:36.903Z,8.7
2018-09-25T07:18:37.506Z,8.8
2018-09-25T07:19:38.182Z,8.8
2018-09-25T07:20:38.856Z,8.7
2018-09-25T07:21:39.531Z,8.9
2018-09-25T07:22:40.259Z,8.9
2018-09-25T07:23:40.883Z,8.9
2018-09-25T07:24:41.594Z,8.9
2018-09-25T07:25:42.234Z,8.9
2018-09-25T07:26:42.913Z,9.0
2018-09-25T07:27:43.585Z,9.0
2018-09-25T07:28:44.262Z,9.1
2018-09-25T07:29:44.937Z,9.1
2018-09-25T07:30:45.613Z,9.2
2018-09-25T07:31:46.287Z,9.2
2018-09-25T07:32:46.961Z,9.1
2018-09-25T07:33:47.637Z,9.3
2018-09-25T07:34:48.311Z,9.4
2018-09-25T07:35:48.986Z,9.4
2018-09-25T07:36:49.663Z,9.5
2018-09-25T07:37:51.093Z,9.4
2018-09-25T07:38:51.709Z,9.6
2018-09-25T07:39:52.385Z,9.7
2018-09-25T07:40:53.107Z,9.9
2018-09-25T07:41:53.782Z,9.9
2018-09-25T07:42:54.458Z,10.2
2018-09-25T07:43:55.134Z,10.5
2018-09-25T07:44:55.815Z,10.9
2018-09-25T07:45:56.535Z,11.5
2018-09-25T07:46:57.213Z,12.2
2018-09-25T07:47:57.891Z,12.6
2018-09-25T07:48:58.569Z,13.0
2018-09-25T07:49:59.245Z,13.7
2018-09-25T07:50:59.921Z,14.2
2018-09-25T07:52:00.601Z,14.7
2018-09-25T07:53:01.279Z,15.2
2018-09-25T07:54:01.956Z,15.7
2018-09-25T07:55:02.635Z,16.2
2018-09-25T07:56:03.314Z,16.7
2018-09-25T07:57:03.993Z,17.1
2018-09-25T07:58:04.670Z,17.3
2018-09-25T07:59:05.348Z,17.6
2018-09-25T08:00:06.027Z,17.9
2018-09-25T08:01:06.710Z,18.0
2018-09-25T08:02:07.386Z,18.3
2018-09-25T08:03:08.108Z,18.5
2018-09-25T08:04:08.746Z,18.5
2018-09-25T08:05:09.427Z,18.6
2018-09-25T08:06:10.112Z,19.0
2018-09-25T08:07:10.832Z,19.3
2018-09-25T08:08:11.512Z,19.6
2018-09-25T08:09:12.345Z,19.6
2018-09-25T08:10:12.915Z,19.7
2018-09-25T08:11:13.595Z,19.9
2018-09-25T08:12:14.274Z,20.2
2018-09-25T08:13:14.959Z,20.3
2018-09-25T08:14:15.638Z,20.6
2018-09-25T08:15:16.325Z,20.8
2018-09-25T08:16:17.000Z,20.8
2018-09-25T08:17:17.683Z,20.9
2018-09-25T08:18:18.366Z,21.1
2018-09-25T08:19:19.046Z,21.3
2018-09-25T08:20:19.729Z,21.4
2018-09-25T08:21:20.412Z,21.4
2018-09-25T08:22:21.095Z,21.4
2018-09-25T08:23:21.777Z,21.1
2018-09-25T08:24:22.459Z,21.1
2018-09-25T08:25:23.141Z,21.2
2018-09-25T08:26:23.830Z,21.4
2018-09-25T08:27:24.508Z,21.6
2018-09-25T08:28:25.190Z,21.8
2018-09-25T08:29:25.873Z,21.7
2018-09-25T08:30:26.557Z,21.8
2018-09-25T08:31:27.240Z,21.8
2018-09-25T08:32:27.972Z,21.8
2018-09-25T08:33:28.699Z,22.0
2018-09-25T08:34:29.381Z,22.2
2018-09-25T08:35:30.064Z,22.3
2018-09-25T08:36:30.748Z,22.4
2018-09-25T08:37:31.434Z,22.4
2018-09-25T08:38:32.120Z,22.1
2018-09-25T08:39:33.036Z,21.8
2018-09-25T08:40:33.488Z,21.3
2018-09-25T08:41:34.168Z,20.7
2018-09-25T08:42:34.848Z,20.3
2018-09-25T08:43:35.534Z,19.5
2018-09-25T08:44:36.214Z,18.6
2018-09-25T08:45:36.953Z,18.1
2018-09-25T08:46:37.579Z,17.9
2018-09-25T08:47:38.262Z,17.7
2018-09-25T08:48:38.946Z,17.6
2018-09-25T08:49:39.629Z,17.8
2018-09-25T08:50:40.311Z,17.8
2018-09-25T08:51:40.993Z,17.8
2018-09-25T08:52:41.677Z,17.8
2018-09-25T08:53:42.361Z,17.8
2018-09-25T08:54:43.041Z,18.0
2018-09-25T08:55:43.725Z,18.0
2018-09-25T08:56:44.408Z,18.0
2018-09-25T08:57:45.092Z,18.3
2018-09-25T08:58:45.774Z,18.5
2018-09-25T08:59:46.456Z,18.8
2018-09-25T09:00:47.152Z,18.9
2018-09-25T09:01:47.868Z,19.1
2018-09-25T09:02:48.552Z,19.3
2018-09-25T09:03:49.233Z,19.4
2018-09-25T09:04:49.916Z,19.4
2018-09-25T09:05:50.601Z,19.6
2018-09-25T09:06:51.282Z,19.6
2018-09-25T09:07:51.964Z,19.8
2018-09-25T09:08:52.646Z,19.9
2018-09-25T09:09:53.328Z,20.0
2018-09-25T09:10:54.013Z,20.0
2018-09-25T09:11:54.698Z,20.1
2018-09-25T09:12:55.427Z,20.2
2018-09-25T09:13:56.110Z,20.2
2018-09-25T09:14:56.791Z,20.1
2018-09-25T09:15:57.476Z,20.1
2018-09-25T09:16:58.158Z,20.0
2018-09-25T09:17:58.840Z,20.1
2018-09-25T09:18:59.523Z,20.0
2018-09-25T09:20:00.302Z,20.0
2018-09-25T09:21:00.935Z,19.8
2018-09-25T09:22:01.617Z,19.5
2018-09-25T09:23:02.346Z,19.3
2018-09-25T09:24:03.028Z,19.2
2018-09-25T09:25:03.729Z,19.1
2018-09-25T09:26:04.396Z,19.1
2018-09-25T09:27:05.078Z,19.1
2018-09-25T09:28:05.765Z,19.1
2018-09-25T09:29:06.446Z,19.0
2018-09-25T09:30:07.173Z,19.1
2018-09-25T09:31:07.859Z,19.3
2018-09-25T09:32:08.586Z,19.3
2018-09-25T09:33:09.268Z,19.1
2018-09-25T09:34:09.950Z,19.2
2018-09-25T09:35:10.640Z,19.2
2018-09-25T09:36:11.317Z,19.2
2018-09-25T09:37:12.000Z,19.1
2018-09-25T09:38:12.682Z,19.1
2018-09-25T09:39:13.366Z,19.1
2018-09-25T09:40:14.096Z,19.1
2018-09-25T09:41:14.831Z,19.2
2018-09-25T09:42:15.461Z,19.1
2018-09-25T09:43:16.156Z,19.0
2018-09-25T09:44:16.871Z,18.8
2018-09-25T09:45:17.554Z,18.8
2018-09-25T09:46:18.242Z,18.8
2018-09-25T09:47:18.968Z,18.6
2018-09-25T09:48:19.695Z,18.6
2018-09-25T09:49:20.393Z,18.2
2018-09-25T09:50:21.120Z,18.1
2018-09-25T09:51:21.827Z,17.9
2018-09-25T09:52:22.510Z,17.8
2018-09-25T09:53:23.191Z,17.8
2018-09-25T09:54:23.876Z,17.8
2018-09-25T09:55:24.559Z,17.8
2018-09-25T09:56:25.262Z,17.7
2018-09-25T09:57:25.972Z,17.7
2018-09-25T09:58:26.653Z,17.7
2018-09-25T09:59:27.336Z,17.6
2018-09-25T10:00:28.019Z,17.6
2018-09-25T10:01:28.701Z,17.3
2018-09-25T10:02:29.382Z,17.1
2018-09-25T10:03:30.065Z,17.1
2018-09-25T10:04:30.801Z,17.0
2018-09-25T10:05:31.476Z,17.0
2018-09-25T10:06:32.158Z,16.9
2018-09-25T10:07:32.839Z,16.7
2018-09-25T10:08:33.522Z,16.6
2018-09-25T10:09:34.206Z,16.6
2018-09-25T10:10:34.888Z,16.5
2018-09-25T10:11:35.569Z,16.5
2018-09-25T10:12:36.329Z,16.5
2018-09-25T10:13:36.933Z,16.6
2018-09-25T10:14:37.642Z,16.6
2018-09-25T10:15:38.347Z,16.7
2018-09-25T10:16:39.025Z,16.7
2018-09-25T10:17:39.710Z,16.8
2018-09-25T10:18:40.452Z,16.8
2018-09-25T10:19:41.167Z,16.9
2018-09-25T10:20:41.851Z,17.0
2018-09-25T10:21:42.532Z,16.9
2018-09-25T10:22:43.215Z,17.0
2018-09-25T10:23:43.897Z,17.1
2018-09-25T10:24:44.580Z,17.1
2018-09-25T10:25:45.270Z,16.9
2018-09-25T10:26:45.988Z,16.7
2018-09-25T10:27:46.669Z,16.5
2018-09-25T10:28:47.350Z,16.3
2018-09-25T10:29:48.035Z,16.2
2018-09-25T10:30:48.716Z,16.0
2018-09-25T10:31:49.400Z,16.1
2018-09-25T10:32:50.097Z,16.1
2018-09-25T10:33:50.854Z,16.0
2018-09-25T10:34:51.492Z,15.9
2018-09-25T10:35:52.174Z,16.0
2018-09-25T10:36:52.859Z,16.1
2018-09-25T10:37:53.536Z,16.2
2018-09-25T10:38:54.217Z,16.1
2018-09-25T10:39:54.899Z,16.1
2018-09-25T10:40:55.661Z,15.9
2018-09-25T10:41:56.301Z,15.9
2018-09-25T10:42:56.983Z,15.9
2018-09-25T10:43:57.664Z,15.9
2018-09-25T10:44:58.346Z,15.9
2018-09-25T10:45:59.028Z,15.8
2018-09-25T10:46:59.708Z,15.8
2018-09-25T10:48:00.392Z,15.7
2018-09-25T10:49:01.074Z,15.7
2018-09-25T10:50:01.774Z,15.7
2018-09-25T10:51:02.435Z,15.4
2018-09-25T10:52:03.116Z,15.5
2018-09-25T10:53:03.797Z,15.6
2018-09-25T10:54:04.477Z,15.6
2018-09-25T10:55:05.158Z,15.6
2018-09-25T10:56:06.016Z,15.6
2018-09-25T10:57:06.559Z,15.7
2018-09-25T10:58:07.253Z,15.9
2018-09-25T10:59:07.969Z,15.9
2018-09-25T11:00:08.650Z,16.1
2018-09-25T11:01:09.333Z,16.1
2018-09-25T11:02:10.013Z,16.0
2018-09-25T11:03:10.766Z,16.0
2018-09-25T11:04:11.375Z,15.8
2018-09-25T11:05:12.056Z,15.9
2018-09-25T11:06:12.739Z,15.9
2018-09-25T11:07:13.437Z,15.8
2018-09-25T11:08:14.143Z,15.9
2018-09-25T11:09:14.826Z,16.0
2018-09-25T11:10:15.511Z,15.9
2018-09-25T11:11:16.189Z,15.9
2018-09-25T11:12:16.875Z,15.8
2018-09-25T11:13:17.597Z,15.9
2018-09-25T11:14:18.279Z,16.1
2018-09-25T11:15:18.964Z,16.1
2018-09-25T11:16:19.641Z,16.2
2018-09-25T11:17:20.324Z,16.2
2018-09-25T11:18:21.051Z,16.3
2018-09-25T11:19:21.734Z,16.2
2018-09-25T11:20:22.417Z,16.1
2018-09-25T11:21:23.098Z,16.2
2018-09-25T11:22:23.778Z,16.2
2018-09-25T11:23:24.461Z,16.1
2018-09-25T11:24:25.186Z,16.1
2018-09-25T11:25:25.922Z,15.9
2018-09-25T11:26:26.551Z,15.9
2018-09-25T11:27:27.229Z,15.8
2018-09-25T11:28:27.909Z,15.8
2018-09-25T11:29:28.592Z,15.8
2018-09-25T11:30:29.272Z,15.8
2018-09-25T11:31:29.952Z,15.9
2018-09-25T11:32:30.634Z,16.0
2018-09-25T11:33:31.315Z,16.0
2018-09-25T11:34:31.997Z,16.1
2018-09-25T11:35:32.676Z,16.1
2018-09-25T11:36:33.358Z,16.1
2018-09-25T11:37:34.040Z,16.2
2018-09-25T11:38:34.721Z,16.2
2018-09-25T11:39:35.402Z,16.2
2018-09-25T11:40:36.089Z,16.3
2018-09-25T11:41:36.812Z,16.3
2018-09-25T11:42:37.493Z,16.3
2018-09-25T11:43:38.175Z,16.3
2018-09-25T11:44:38.855Z,16.2
2018-09-25T11:45:39.538Z,16.1
2018-09-25T11:46:40.284Z,16.0
2018-09-25T11:47:40.897Z,15.9
2018-09-25T11:48:41.576Z,15.8
2018-09-25T11:49:42.303Z,15.7
2018-09-25T11:50:42.940Z,15.6
2018-09-25T11:51:43.622Z,15.7
2018-09-25T11:52:44.395Z,15.6
2018-09-25T11:53:45.034Z,15.6
2018-09-25T11:54:45.714Z,15.6
2018-09-25T11:55:46.396Z,15.6
2018-09-25T11:56:47.077Z,15.5
2018-09-25T11:57:47.757Z,15.5
2018-09-25T11:58:48.484Z,15.5
2018-09-25T11:59:49.163Z,15.5
2018-09-25T12:00:49.844Z,15.5
2018-09-25T12:01:50.524Z,15.4
2018-09-25T12:02:51.203Z,15.4
2018-09-25T12:03:51.884Z,15.3
2018-09-25T12:04:52.564Z,15.3
2018-09-25T12:05:53.243Z,15.2
2018-09-25T12:06:53.924Z,15.2
2018-09-25T12:07:54.604Z,15.0
2018-09-25T12:08:55.353Z,15.1
2018-09-25T12:09:56.049Z,15.0
2018-09-25T12:10:56.771Z,14.9
2018-09-25T12:11:57.492Z,14.8
2018-09-25T12:12:58.177Z,14.7
2018-09-25T12:13:58.859Z,14.8
2018-09-25T12:14:59.537Z,14.6
2018-09-25T12:16:00.261Z,14.6
2018-09-25T12:17:00.945Z,14.5
2018-09-25T12:18:01.666Z,14.4
2018-09-25T12:19:02.345Z,14.3
2018-09-25T12:20:03.101Z,14.4
2018-09-25T12:21:03.708Z,14.4
2018-09-25T12:22:04.408Z,14.5
2018-09-25T12:23:05.114Z,14.5
2018-09-25T12:24:05.793Z,14.6
2018-09-25T12:25:06.479Z,14.8
2018-09-25T12:26:07.201Z,14.8
2018-09-25T12:27:07.883Z,14.8
2018-09-25T12:28:08.608Z,14.9
2018-09-25T12:29:09.288Z,15.0
2018-09-25T12:30:09.968Z,15.0
2018-09-25T12:31:10.649Z,15.1
2018-09-25T12:32:11.331Z,15.2
2018-09-25T12:33:12.015Z,15.2
2018-09-25T12:34:12.695Z,15.2
2018-09-25T12:35:13.375Z,15.3
2018-09-25T12:36:14.406Z,15.3
2018-09-25T12:37:15.024Z,15.3
2018-09-25T12:38:15.728Z,15.3
2018-09-25T12:39:16.433Z,15.4
2018-09-25T12:40:17.114Z,15.3
2018-09-25T12:41:17.793Z,15.3
2018-09-25T12:42:18.472Z,15.3
2018-09-25T12:43:19.155Z,15.5
2018-09-25T12:44:19.834Z,15.4
2018-09-25T12:45:20.515Z,15.5
2018-09-25T12:46:21.193Z,15.6
2018-09-25T12:47:21.874Z,15.6
2018-09-25T12:48:22.556Z,15.7
2018-09-25T12:49:23.284Z,15.7
2018-09-25T12:50:23.962Z,15.6
2018-09-25T12:51:24.643Z,15.8
2018-09-25T12:52:25.363Z,15.8
2018-09-25T12:53:26.005Z,15.8
2018-09-25T12:54:26.686Z,15.7
2018-09-25T12:55:27.371Z,15.8
2018-09-25T12:56:28.048Z,15.9
2018-09-25T12:57:28.729Z,15.8
2018-09-25T12:58:29.409Z,15.9
2018-09-25T12:59:30.149Z,16.0
2018-09-25T13:00:30.863Z,16.0
2018-09-25T13:01:31.561Z,16.0
2018-09-25T13:02:32.269Z,16.0
2018-09-25T13:03:32.952Z,16.0
2018-09-25T13:04:33.716Z,16.1
2018-09-25T13:05:34.361Z,16.0
2018-09-25T13:06:35.044Z,16.0
2018-09-25T13:07:35.760Z,16.1
2018-09-25T13:08:36.442Z,16.1
2018-09-25T13:09:37.181Z,16.1
2018-09-25T13:10:37.891Z,16.2
2018-09-25T13:11:38.569Z,16.2
2018-09-25T13:12:39.251Z,16.2
2018-09-25T13:13:39.932Z,16.2
2018-09-25T13:14:40.651Z,16.4
2018-09-25T13:15:41.338Z,16.4
2018-09-25T13:16:42.023Z,16.5
2018-09-25T13:17:42.725Z,16.4
2018-09-25T13:18:43.384Z,16.4
2018-09-25T13:19:44.065Z,16.5
2018-09-25T13:20:44.746Z,16.5
2018-09-25T13:21:45.430Z,16.4
2018-09-25T13:22:46.118Z,16.4
2018-09-25T13:23:46.890Z,16.4
2018-09-25T13:24:47.518Z,16.3
2018-09-25T13:25:48.200Z,16.4
2018-09-25T13:26:48.881Z,16.3
2018-09-25T13:27:49.565Z,16.2
2018-09-25T13:28:50.243Z,16.2
2018-09-25T13:29:50.925Z,16.2
2018-09-25T13:30:51.647Z,16.2
2018-09-25T13:31:52.336Z,16.2
2018-09-25T13:32:53.060Z,16.2
2018-09-25T13:33:53.735Z,16.2
2018-09-25T13:34:54.418Z,16.2
2018-09-25T13:35:55.099Z,16.2
2018-09-25T13:36:55.779Z,16.1
2018-09-25T13:37:56.530Z,16.0
2018-09-25T13:38:57.228Z,16.0
2018-09-25T13:39:57.912Z,15.9
2018-09-25T13:40:58.596Z,16.0
2018-09-25T13:41:59.317Z,15.9
2018-09-25T13:42:59.998Z,15.8